シカゴ/オヘア の空港の天気 - METARとTAF

シカゴ・オヘア国際空港 ( KORD / ORD ) - アメリカ イリノイ州シカゴ
飛行場実況気象(Metar)
観測時間02/17 16:51 CST (02/17 22:51 UTC)
風向・風速東北東 4m/s
視程3200m
天気現象弱い雪 もや
全天の4割程度の雲 雲底高度 240m
全天の8割程度の雲 雲底高度 430m
全天を覆う雲 雲底高度 610m
気温-2.8℃
湿度92%
気圧1011hPa
METARKORD 172251Z 07008KT 2SM R10L/6000VP6000FT -SN BR SCT008 BKN014 OVC020 M03/M04 A2983 RMK AO2 FZDZE40 SLP110 P0002 I1000 T10281039
過去の天気等 Google飛行場航空写真 Wunderground天気予報

過去48時間のMETAR

飛行場予報(TAF)
発表時間: 2/17 14:52 CST (2/17 20:52 UTC)
予報対象時間: 17日15時 CST ~ 18日18時 CST
風向・風速東 6m/s 瞬間風速 9m/s
視程3220m
天気現象弱い氷霧雨雪
全天を覆う雲 雲底高度 340m
17日16時 CST から
風向・風速東北東 6m/s
17日21時 CST から
風向・風速北東 5m/s
視程4830m
天気現象弱い雪 もや
全天を覆う雲 雲底高度 370m
18日3時 CST ~ 18日6時 CST に一時的に
視程1610m
天気現象弱いしゅう雪
18日6時 CST から
風向・風速北 6m/s
視程8050m
天気現象弱いしゅう雪
全天を覆う雲 雲底高度 460m
18日8時 CST から
風向・風速北北西 5m/s
視程10km以上
全天の8割程度の雲 雲底高度 460m
全天を覆う雲 雲底高度 760m
KORD 172052Z 1721/1824 08012G17KT 2SM -FZDZSN OVC011
FM172215 06011KT 1 1/2SM -SN BR SCT007 OVC010
FM180300 04009KT 3SM -SN BR OVC012
TEMPO 1809/1812 1SM -SHSN
FM181200 35011KT 5SM -SHSN OVC015
FM181400 34010KT P6SM BKN015 OVC025